createdAt,value
2018-05-31T00:01:27.802Z,16.63
2018-05-31T00:03:56.285Z,16.70
2018-05-31T00:06:24.847Z,17.97
2018-05-31T00:08:54.329Z,18.20
2018-05-31T00:11:23.058Z,18.67
2018-05-31T00:13:51.518Z,17.03
2018-05-31T00:16:19.951Z,17.97
2018-05-31T00:18:48.409Z,17.40
2018-05-31T00:21:16.842Z,18.27
2018-05-31T00:23:45.239Z,19.00
2018-05-31T00:26:13.763Z,18.13
2018-05-31T00:28:42.247Z,18.47
2018-05-31T00:31:10.712Z,18.40
2018-05-31T00:33:39.162Z,16.63
2018-05-31T00:36:07.775Z,16.60
2018-05-31T00:38:36.200Z,18.10
2018-05-31T00:41:04.689Z,17.97
2018-05-31T00:43:33.149Z,18.17
2018-05-31T00:46:01.550Z,19.30
2018-05-31T00:48:29.996Z,17.07
2018-05-31T00:50:58.461Z,18.10
2018-05-31T00:53:26.933Z,18.23
2018-05-31T00:56:07.192Z,17.90
2018-05-31T00:58:35.605Z,18.23
2018-05-31T01:01:04.102Z,18.27
2018-05-31T01:03:32.591Z,18.50
2018-05-31T01:06:02.017Z,16.70
2018-05-31T01:08:30.600Z,17.67
2018-05-31T01:10:59.027Z,16.97
2018-05-31T01:13:27.462Z,16.63
2018-05-31T01:15:55.891Z,18.83
2018-05-31T01:18:24.313Z,19.50
2018-05-31T01:20:52.782Z,19.20
2018-05-31T01:23:21.274Z,18.30
2018-05-31T01:25:49.711Z,20.03
2018-05-31T01:28:18.185Z,18.40
2018-05-31T01:30:46.638Z,19.70
2018-05-31T01:33:15.188Z,19.40
2018-05-31T01:35:43.706Z,17.57
2018-05-31T01:38:23.892Z,16.27
2018-05-31T01:40:52.377Z,16.70
2018-05-31T01:43:20.823Z,15.73
2018-05-31T01:45:49.245Z,17.73
2018-05-31T01:48:17.740Z,18.93
2018-05-31T01:50:46.186Z,17.23
2018-05-31T01:53:14.604Z,17.13
2018-05-31T01:55:43.059Z,18.50
2018-05-31T01:58:11.526Z,18.27
2018-05-31T02:00:39.984Z,18.77
2018-05-31T02:03:08.501Z,18.57
2018-05-31T02:05:36.915Z,19.17
2018-05-31T02:08:05.345Z,20.33
2018-05-31T02:10:33.791Z,19.80
2018-05-31T02:13:02.437Z,20.17
2018-05-31T02:15:30.892Z,18.60
2018-05-31T02:17:59.337Z,19.23
2018-05-31T02:20:27.756Z,18.20
2018-05-31T02:22:56.207Z,18.63
2018-05-31T02:25:24.662Z,18.80
2018-05-31T02:27:53.136Z,18.87
2018-05-31T02:30:21.626Z,19.13
2018-05-31T02:32:50.077Z,18.73
2018-05-31T02:35:18.505Z,18.63
2018-05-31T02:37:46.943Z,19.13
2018-05-31T02:40:15.380Z,18.70
2018-05-31T02:42:43.824Z,17.93
2018-05-31T02:45:12.253Z,17.77
2018-05-31T02:47:40.669Z,18.90
2018-05-31T02:50:09.120Z,17.33
2018-05-31T02:52:37.562Z,18.80
2018-05-31T02:55:06.124Z,18.83
2018-05-31T02:57:34.558Z,17.13
2018-05-31T03:00:02.958Z,17.70
2018-05-31T03:02:37.374Z,17.00
2018-05-31T03:05:05.829Z,17.80
2018-05-31T03:07:34.219Z,18.33
2018-05-31T03:10:02.708Z,16.97
2018-05-31T03:12:31.239Z,17.53
2018-05-31T03:14:59.697Z,17.77
2018-05-31T03:17:28.168Z,17.00
2018-05-31T03:19:57.747Z,17.37
2018-05-31T03:22:26.190Z,17.63
2018-05-31T03:24:54.657Z,16.53
2018-05-31T03:27:24.189Z,17.60
2018-05-31T03:29:52.704Z,15.93
2018-05-31T03:32:21.226Z,17.00
2018-05-31T03:34:49.700Z,16.40
2018-05-31T03:37:18.121Z,15.90
2018-05-31T03:39:47.565Z,15.90
2018-05-31T03:42:16.108Z,16.90
2018-05-31T03:44:44.498Z,14.50
2018-05-31T03:47:13.131Z,15.13
2018-05-31T03:49:41.566Z,16.23
2018-05-31T03:52:10.192Z,15.80
2018-05-31T03:54:38.653Z,16.40
2018-05-31T03:57:07.103Z,16.10
2018-05-31T03:59:35.540Z,15.67
2018-05-31T04:02:04.016Z,15.60
2018-05-31T04:04:32.549Z,14.80
2018-05-31T04:07:01.082Z,14.73
2018-05-31T04:09:29.666Z,15.87
2018-05-31T04:11:58.262Z,14.20
2018-05-31T04:14:26.827Z,14.67
2018-05-31T04:16:55.344Z,14.97
2018-05-31T04:19:23.791Z,14.20
2018-05-31T04:21:53.143Z,14.70
2018-05-31T04:24:21.657Z,14.40
2018-05-31T04:26:50.145Z,14.87
2018-05-31T04:29:18.649Z,13.93
2018-05-31T04:31:47.148Z,13.80
2018-05-31T04:34:15.602Z,14.80
2018-05-31T04:36:44.127Z,13.93
2018-05-31T04:39:14.757Z,13.63
2018-05-31T04:41:43.326Z,13.63
2018-05-31T04:44:11.805Z,13.50
2018-05-31T04:46:40.330Z,12.67
2018-05-31T04:49:08.778Z,12.00
2018-05-31T04:51:37.315Z,11.80
2018-05-31T04:54:06.708Z,12.13
2018-05-31T04:56:35.128Z,11.87
2018-05-31T04:59:03.693Z,12.13
2018-05-31T05:01:32.163Z,12.70
2018-05-31T05:04:00.669Z,11.97
2018-05-31T05:06:29.220Z,12.77
2018-05-31T05:08:57.683Z,11.30
2018-05-31T05:11:26.097Z,12.13
2018-05-31T05:13:54.716Z,12.00
2018-05-31T05:16:23.101Z,11.00
2018-05-31T05:18:51.626Z,11.83
2018-05-31T05:21:20.023Z,11.30
2018-05-31T05:23:48.441Z,11.50
2018-05-31T05:26:16.864Z,11.10
2018-05-31T05:28:45.332Z,11.00
2018-05-31T05:31:14.130Z,9.30
2018-05-31T05:33:42.635Z,10.70
2018-05-31T05:36:11.467Z,8.93
2018-05-31T05:38:40.049Z,9.50
2018-05-31T05:41:08.571Z,9.23
2018-05-31T05:43:37.119Z,9.03
2018-05-31T05:46:05.498Z,8.77
2018-05-31T05:48:33.876Z,8.90
2018-05-31T05:51:02.328Z,8.50
2018-05-31T05:53:32.703Z,8.73
2018-05-31T05:56:02.019Z,7.90
2018-05-31T05:58:30.436Z,9.33
2018-05-31T06:01:00.758Z,8.40
2018-05-31T06:03:29.216Z,7.70
2018-05-31T06:05:57.703Z,7.77
2018-05-31T06:08:26.130Z,8.13
2018-05-31T06:10:54.668Z,8.10
2018-05-31T06:13:23.114Z,8.50
2018-05-31T06:15:51.576Z,9.17
2018-05-31T06:18:19.999Z,8.23
2018-05-31T06:20:48.379Z,7.93
2018-05-31T06:23:16.820Z,8.43
2018-05-31T06:25:45.368Z,7.80
2018-05-31T06:28:13.797Z,8.10
2018-05-31T06:30:42.189Z,8.20
2018-05-31T06:33:10.581Z,8.13
2018-05-31T06:35:40.970Z,7.73
2018-05-31T06:38:09.376Z,7.83
2018-05-31T06:40:37.883Z,7.63
2018-05-31T06:43:06.261Z,7.20
2018-05-31T06:45:34.650Z,8.07
2018-05-31T06:48:03.090Z,8.20
2018-05-31T06:50:31.482Z,6.97
2018-05-31T06:52:59.924Z,7.53
2018-05-31T06:55:28.368Z,8.07
2018-05-31T06:57:56.899Z,7.20
2018-05-31T07:00:25.640Z,7.53
2018-05-31T07:02:54.101Z,7.07
2018-05-31T07:05:22.575Z,8.07
2018-05-31T07:07:51.903Z,7.27
2018-05-31T07:10:20.353Z,8.80
2018-05-31T07:12:48.910Z,8.83
2018-05-31T07:15:17.284Z,8.20
2018-05-31T07:17:45.838Z,8.30
2018-05-31T07:20:14.261Z,8.80
2018-05-31T07:22:43.585Z,8.10
2018-05-31T07:25:12.035Z,8.20
2018-05-31T07:27:40.514Z,8.00
2018-05-31T07:30:09.033Z,8.80
2018-05-31T07:32:37.430Z,9.33
2018-05-31T07:35:05.820Z,9.37
2018-05-31T07:37:35.206Z,9.20
2018-05-31T07:40:03.592Z,8.10
2018-05-31T07:42:32.364Z,8.23
2018-05-31T07:45:00.802Z,7.80
2018-05-31T07:47:30.225Z,8.40
2018-05-31T07:49:58.722Z,7.60
2018-05-31T07:52:27.198Z,8.37
2018-05-31T07:54:55.636Z,7.60
2018-05-31T07:57:25.079Z,7.63
2018-05-31T07:59:53.468Z,7.97
2018-05-31T08:02:21.871Z,7.63
2018-05-31T08:04:50.299Z,7.20
2018-05-31T08:07:19.231Z,7.13
2018-05-31T08:09:47.753Z,8.00
2018-05-31T08:12:16.190Z,7.70
2018-05-31T08:14:44.564Z,8.47
2018-05-31T08:17:13.114Z,8.67
2018-05-31T08:19:41.567Z,8.40
2018-05-31T08:22:09.941Z,7.47
2018-05-31T08:24:38.387Z,8.07
2018-05-31T08:27:07.752Z,6.80
2018-05-31T08:29:36.148Z,7.37
2018-05-31T08:32:04.634Z,7.77
2018-05-31T08:34:35.026Z,7.77
2018-05-31T08:37:04.358Z,7.10
2018-05-31T08:39:32.768Z,8.50
2018-05-31T08:42:02.022Z,7.30
2018-05-31T08:44:30.545Z,8.07
2018-05-31T08:46:59.335Z,7.23
2018-05-31T08:49:28.747Z,7.70
2018-05-31T08:51:57.272Z,8.53
2018-05-31T08:54:25.970Z,7.83
2018-05-31T08:56:54.695Z,8.83
2018-05-31T08:59:23.212Z,8.87
2018-05-31T09:01:51.619Z,7.73
2018-05-31T09:04:20.126Z,8.00
2018-05-31T09:06:48.624Z,7.60
2018-05-31T09:09:18.005Z,9.63
2018-05-31T09:11:47.399Z,8.37
2018-05-31T09:14:15.834Z,8.40
2018-05-31T09:16:44.234Z,7.90
2018-05-31T09:19:13.003Z,7.73
2018-05-31T09:21:41.790Z,7.40
2018-05-31T09:24:10.608Z,7.90
2018-05-31T09:26:39.080Z,7.10
2018-05-31T09:29:07.560Z,7.40
2018-05-31T09:31:36.277Z,7.97
2018-05-31T09:34:04.774Z,7.57
2018-05-31T09:36:34.568Z,7.50
2018-05-31T09:39:03.626Z,7.83
2018-05-31T09:41:32.189Z,8.17
2018-05-31T09:44:00.653Z,7.90
2018-05-31T09:46:29.278Z,8.00
2018-05-31T09:48:57.976Z,7.23
2018-05-31T09:51:26.443Z,7.00
2018-05-31T09:53:55.282Z,7.47
2018-05-31T09:56:24.396Z,7.60
2018-05-31T09:58:53.017Z,7.57
2018-05-31T10:01:21.679Z,7.83
2018-05-31T10:03:50.357Z,8.20
2018-05-31T10:06:24.117Z,7.30
2018-05-31T10:08:53.150Z,5.90
2018-05-31T10:11:21.648Z,6.30
2018-05-31T10:13:50.218Z,5.93
2018-05-31T10:16:18.822Z,5.73
2018-05-31T10:18:47.513Z,5.60
2018-05-31T10:21:16.166Z,5.27
2018-05-31T10:23:48.914Z,5.80
2018-05-31T10:26:17.856Z,5.97
2018-05-31T10:28:46.562Z,6.60
2018-05-31T10:31:17.623Z,5.73
2018-05-31T10:33:47.519Z,5.50
2018-05-31T10:36:17.111Z,6.13
2018-05-31T10:38:45.679Z,6.83
2018-05-31T10:41:14.181Z,5.83
2018-05-31T10:46:17.544Z,6.30
2018-05-31T10:48:46.090Z,7.70
2018-05-31T10:51:18.659Z,7.27
2018-05-31T10:53:47.166Z,6.90
2018-05-31T10:56:17.190Z,7.47
2018-05-31T10:58:46.092Z,7.80
2018-05-31T11:01:14.607Z,6.60
2018-05-31T11:03:43.092Z,6.60
2018-05-31T11:06:11.616Z,6.60
2018-05-31T11:08:40.089Z,6.03
2018-05-31T11:11:08.713Z,6.90
2018-05-31T11:13:37.279Z,6.23
2018-05-31T11:16:05.723Z,6.30
2018-05-31T11:18:34.256Z,5.73
2018-05-31T11:21:19.729Z,5.87
2018-05-31T11:23:48.858Z,5.43
2018-05-31T11:26:19.206Z,5.30
2018-05-31T11:28:48.006Z,6.17
2018-05-31T11:31:16.631Z,5.73
2018-05-31T11:33:45.061Z,6.80
2018-05-31T11:36:13.563Z,6.40
2018-05-31T11:38:42.004Z,6.73
2018-05-31T11:41:10.956Z,6.20
2018-05-31T11:43:41.099Z,5.50
2018-05-31T11:46:15.362Z,6.13
2018-05-31T11:48:44.860Z,5.50
2018-05-31T11:53:48.870Z,5.60
2018-05-31T11:56:17.910Z,6.23
2018-05-31T11:58:46.425Z,6.30
2018-05-31T12:01:15.031Z,5.90
2018-05-31T12:03:43.704Z,6.10
2018-05-31T12:06:12.199Z,6.33
2018-05-31T12:08:40.875Z,6.60
2018-05-31T12:11:09.437Z,6.20
2018-05-31T12:13:39.090Z,6.10
2018-05-31T12:16:09.521Z,6.37
2018-05-31T12:18:38.139Z,5.80
2018-05-31T12:21:07.496Z,6.60
2018-05-31T12:23:39.839Z,6.50
2018-05-31T12:26:09.505Z,7.63
2018-05-31T12:28:39.318Z,6.07
2018-05-31T12:31:08.417Z,6.50
2018-05-31T12:33:38.041Z,6.57
2018-05-31T12:36:06.825Z,6.47
2018-05-31T12:38:35.854Z,5.83
2018-05-31T12:41:04.576Z,6.43
2018-05-31T12:43:33.594Z,6.60
2018-05-31T12:46:03.194Z,6.80
2018-05-31T12:48:32.592Z,6.13
2018-05-31T12:51:02.298Z,5.67
2018-05-31T12:53:31.904Z,6.00
2018-05-31T12:56:00.786Z,6.00
2018-05-31T12:58:29.307Z,6.30
2018-05-31T13:00:58.002Z,5.60
2018-05-31T13:03:28.203Z,5.57
2018-05-31T13:05:57.749Z,5.47
2018-05-31T13:08:28.822Z,5.93
2018-05-31T13:10:57.529Z,10.70
2018-05-31T13:13:33.775Z,10.00
2018-05-31T13:16:02.569Z,10.33
2018-05-31T13:18:31.834Z,10.17
2018-05-31T13:21:02.003Z,10.40
2018-05-31T13:23:30.987Z,11.50
2018-05-31T13:26:00.250Z,11.33
2018-05-31T13:28:29.315Z,11.10
2018-05-31T13:30:58.581Z,11.17
2018-05-31T13:33:29.830Z,9.03
2018-05-31T13:35:58.803Z,8.60
2018-05-31T13:38:28.545Z,7.93
2018-05-31T13:40:57.588Z,8.00
2018-05-31T13:43:26.645Z,7.13
2018-05-31T13:45:55.192Z,7.80
2018-05-31T13:48:24.099Z,6.87
2018-05-31T13:50:52.721Z,7.50
2018-05-31T13:53:21.451Z,8.50
2018-05-31T13:55:50.898Z,8.87
2018-05-31T13:58:19.559Z,8.37
2018-05-31T14:00:48.155Z,9.33
2018-05-31T14:03:16.926Z,10.03
2018-05-31T14:05:45.389Z,12.10
2018-05-31T14:08:13.944Z,11.13
2018-05-31T14:10:42.440Z,10.10
2018-05-31T14:13:11.219Z,10.43
2018-05-31T14:15:39.991Z,10.10
2018-05-31T14:18:08.732Z,10.37
2018-05-31T14:20:37.352Z,10.43
2018-05-31T14:23:06.629Z,10.10
2018-05-31T14:25:35.115Z,10.30
2018-05-31T14:28:03.643Z,10.37
2018-05-31T14:30:32.030Z,10.50
2018-05-31T14:33:01.504Z,9.47
2018-05-31T14:35:30.055Z,8.80
2018-05-31T14:37:58.542Z,9.00
2018-05-31T14:40:27.230Z,8.47
2018-05-31T14:42:56.764Z,9.37
2018-05-31T14:45:25.274Z,9.70
2018-05-31T14:47:54.010Z,9.13
2018-05-31T14:50:22.578Z,9.23
2018-05-31T14:52:51.386Z,9.50
2018-05-31T14:55:20.259Z,9.20
2018-05-31T14:57:48.693Z,9.50
2018-05-31T15:00:17.095Z,10.10
2018-05-31T15:02:45.522Z,10.50
2018-05-31T15:05:14.825Z,9.50
2018-05-31T15:07:44.442Z,8.67
2018-05-31T15:10:13.835Z,9.60
2018-05-31T15:12:42.720Z,8.53
2018-05-31T15:15:11.551Z,8.43
2018-05-31T15:17:40.067Z,7.80
2018-05-31T15:20:08.781Z,7.47
2018-05-31T15:22:37.231Z,6.70
2018-05-31T15:25:05.668Z,7.70
2018-05-31T15:27:34.965Z,9.00
2018-05-31T15:30:03.723Z,9.67
2018-05-31T15:32:32.493Z,9.80
2018-05-31T15:35:01.067Z,8.70
2018-05-31T15:37:29.857Z,9.80
2018-05-31T15:39:58.785Z,9.57
2018-05-31T15:42:27.682Z,9.50
2018-05-31T15:44:56.915Z,10.07
2018-05-31T15:47:27.208Z,10.57
2018-05-31T15:49:55.892Z,10.57
2018-05-31T15:52:24.917Z,10.97
2018-05-31T15:54:54.379Z,9.80
2018-05-31T15:57:26.648Z,9.80
2018-05-31T15:59:55.297Z,9.00
2018-05-31T16:02:28.942Z,11.00
2018-05-31T16:05:07.066Z,10.30
2018-05-31T16:07:37.315Z,10.33
2018-05-31T16:10:06.785Z,10.03
2018-05-31T16:12:36.951Z,10.83
2018-05-31T16:15:05.486Z,9.63
2018-05-31T16:17:34.031Z,10.17
2018-05-31T16:20:02.653Z,10.23
2018-05-31T16:22:31.266Z,10.20
2018-05-31T16:24:59.945Z,9.53
2018-05-31T16:27:28.584Z,9.90
2018-05-31T16:29:57.019Z,9.83
2018-05-31T16:32:25.433Z,9.13
2018-05-31T16:34:54.009Z,10.57
2018-05-31T16:37:22.498Z,9.70
2018-05-31T16:39:51.814Z,10.90
2018-05-31T16:42:20.350Z,11.10
2018-05-31T16:44:49.820Z,10.73
2018-05-31T16:47:18.334Z,10.23
2018-05-31T16:49:46.761Z,11.30
2018-05-31T16:52:15.208Z,9.23
2018-05-31T16:54:43.659Z,10.57
2018-05-31T16:57:12.155Z,9.67
2018-05-31T16:59:41.111Z,9.70
2018-05-31T17:02:10.546Z,9.77
2018-05-31T17:06:03.013Z,9.97
2018-05-31T17:08:31.402Z,10.47
2018-05-31T17:10:59.813Z,9.50
2018-05-31T17:13:28.341Z,10.50
2018-05-31T17:15:56.791Z,10.33
2018-05-31T17:18:25.266Z,10.67
2018-05-31T17:20:53.833Z,10.67
2018-05-31T17:23:22.865Z,9.23
2018-05-31T17:25:55.271Z,10.80
2018-05-31T17:28:23.854Z,9.13
2018-05-31T17:30:52.270Z,11.13
2018-05-31T17:33:20.671Z,9.83
2018-05-31T17:35:49.114Z,10.83
2018-05-31T17:38:17.644Z,10.63
2018-05-31T17:40:46.159Z,10.83
2018-05-31T17:43:14.608Z,11.20
2018-05-31T17:45:43.124Z,11.77
2018-05-31T17:48:13.474Z,12.27
2018-05-31T17:50:41.847Z,11.87
2018-05-31T17:53:10.258Z,10.60
2018-05-31T17:55:38.654Z,10.20
2018-05-31T17:58:08.072Z,12.33
2018-05-31T18:00:36.442Z,11.43
2018-05-31T18:03:04.878Z,12.00
2018-05-31T18:05:33.279Z,12.37
2018-05-31T18:08:01.658Z,12.30
2018-05-31T18:10:30.061Z,13.10
2018-05-31T18:12:58.443Z,11.40
2018-05-31T18:15:27.090Z,13.27
2018-05-31T18:17:55.679Z,11.40
2018-05-31T18:20:24.171Z,10.00
2018-05-31T18:22:56.448Z,10.33
2018-05-31T18:25:24.925Z,11.87
2018-05-31T18:27:53.397Z,12.20
2018-05-31T18:30:21.826Z,11.23
2018-05-31T18:32:54.148Z,13.40
2018-05-31T18:35:22.631Z,12.00
2018-05-31T18:37:51.061Z,13.10
2018-05-31T18:40:19.514Z,12.07
2018-05-31T18:42:47.946Z,11.70
2018-05-31T18:45:16.469Z,12.53
2018-05-31T18:47:44.920Z,11.53
2018-05-31T18:50:13.350Z,12.00
2018-05-31T18:52:41.713Z,11.47
2018-05-31T18:55:10.139Z,11.80
2018-05-31T18:57:38.518Z,12.03
2018-05-31T19:00:06.966Z,12.93
2018-05-31T19:02:35.425Z,15.30
2018-05-31T19:05:03.948Z,37.17
2018-05-31T19:07:32.418Z,17.43
2018-05-31T19:10:00.850Z,20.63
2018-05-31T19:12:34.795Z,21.77
2018-05-31T19:15:03.165Z,22.47
2018-05-31T19:17:31.594Z,23.30
2018-05-31T19:20:00.113Z,23.03
2018-05-31T19:22:29.354Z,23.50
2018-05-31T19:25:03.262Z,23.67
2018-05-31T19:27:31.719Z,21.60
2018-05-31T19:30:05.918Z,23.57
2018-05-31T19:32:34.339Z,19.50
2018-05-31T19:35:03.689Z,21.60
2018-05-31T19:37:32.053Z,24.13
2018-05-31T19:40:00.423Z,22.53
2018-05-31T19:42:34.604Z,22.80
2018-05-31T19:45:03.061Z,23.63
2018-05-31T19:47:31.525Z,24.80
2018-05-31T19:50:00.015Z,26.70
2018-05-31T19:52:34.140Z,29.23
2018-05-31T19:55:02.509Z,27.87
2018-05-31T19:57:30.994Z,30.80
2018-05-31T20:00:04.902Z,31.03
2018-05-31T20:02:38.908Z,31.00
2018-05-31T20:05:07.371Z,30.93
2018-05-31T20:07:35.763Z,32.03
2018-05-31T20:10:04.207Z,32.40
2018-05-31T20:12:32.660Z,32.90
2018-05-31T20:15:01.038Z,31.20
2018-05-31T20:17:29.516Z,31.10
2018-05-31T20:19:57.867Z,32.17
2018-05-31T20:22:26.364Z,33.70
2018-05-31T20:24:54.754Z,37.87
2018-05-31T20:27:23.226Z,36.10
2018-05-31T20:29:51.595Z,38.40
2018-05-31T20:32:19.957Z,39.60
2018-05-31T20:34:48.400Z,40.83
2018-05-31T20:37:16.807Z,42.00
2018-05-31T20:39:45.364Z,43.40
2018-05-31T20:42:13.782Z,43.93
2018-05-31T20:44:42.275Z,48.70
2018-05-31T20:47:10.846Z,48.60
2018-05-31T20:49:39.200Z,42.00
2018-05-31T20:52:07.632Z,47.50
2018-05-31T20:54:35.990Z,43.30
2018-05-31T20:57:04.475Z,42.77
2018-05-31T20:59:33.856Z,45.03
2018-05-31T21:02:02.247Z,41.90
2018-05-31T21:04:30.651Z,42.90
2018-05-31T21:06:59.125Z,42.10
2018-05-31T21:09:27.546Z,43.07
2018-05-31T21:11:56.025Z,40.70
2018-05-31T21:14:24.361Z,43.43
2018-05-31T21:16:52.745Z,44.30
2018-05-31T21:19:21.161Z,42.63
2018-05-31T21:21:49.527Z,46.70
2018-05-31T21:24:17.893Z,46.40
2018-05-31T21:26:46.326Z,48.20
2018-05-31T21:29:14.734Z,44.53
2018-05-31T21:31:43.224Z,46.10
2018-05-31T21:34:11.690Z,45.33
2018-05-31T21:36:40.136Z,43.07
2018-05-31T21:39:08.506Z,46.70
2018-05-31T21:41:36.933Z,51.77
2018-05-31T21:44:05.289Z,50.10
2018-05-31T21:46:33.654Z,53.73
2018-05-31T21:49:03.112Z,54.57
2018-05-31T21:51:31.504Z,52.17
2018-05-31T21:53:59.873Z,53.03
2018-05-31T21:56:28.388Z,53.10
2018-05-31T21:58:56.802Z,48.97
2018-05-31T22:01:25.236Z,49.60
2018-05-31T22:03:53.671Z,48.20
2018-05-31T22:06:22.065Z,49.23
2018-05-31T22:08:50.430Z,47.87
2018-05-31T22:11:18.909Z,50.10
2018-05-31T22:13:47.251Z,53.10
2018-05-31T22:16:15.626Z,48.80
2018-05-31T22:18:44.031Z,50.90
2018-05-31T22:21:12.385Z,52.27
2018-05-31T22:23:40.840Z,50.60
2018-05-31T22:26:09.239Z,51.20
2018-05-31T22:28:37.666Z,51.07
2018-05-31T22:31:06.044Z,52.53
2018-05-31T22:33:34.523Z,48.67
2018-05-31T22:36:02.927Z,45.37
2018-05-31T22:38:31.340Z,47.57
2018-05-31T22:40:59.733Z,48.17
2018-05-31T22:43:29.219Z,49.67
2018-05-31T22:45:57.662Z,47.97
2018-05-31T22:48:26.092Z,50.27
2018-05-31T22:50:54.464Z,53.33
2018-05-31T22:53:22.841Z,51.30
2018-05-31T22:55:51.215Z,50.73
2018-05-31T22:58:19.660Z,50.27
2018-05-31T23:00:48.049Z,52.73
2018-05-31T23:03:16.399Z,51.50
2018-05-31T23:05:44.847Z,48.40
2018-05-31T23:08:13.188Z,48.70
2018-05-31T23:10:41.645Z,45.60
2018-05-31T23:13:10.027Z,45.37
2018-05-31T23:15:38.405Z,45.93
2018-05-31T23:18:06.756Z,42.30
2018-05-31T23:20:35.224Z,45.13
2018-05-31T23:23:03.636Z,43.80
2018-05-31T23:25:32.050Z,43.93
2018-05-31T23:28:00.621Z,44.77
2018-05-31T23:30:28.989Z,42.77
2018-05-31T23:32:57.366Z,42.63
2018-05-31T23:35:25.741Z,44.20
2018-05-31T23:37:54.099Z,44.60
2018-05-31T23:40:22.589Z,44.17
2018-05-31T23:42:50.972Z,44.47
2018-05-31T23:45:19.337Z,43.83
2018-05-31T23:47:47.787Z,41.53
2018-05-31T23:50:16.165Z,45.43
2018-05-31T23:52:44.611Z,43.27
2018-05-31T23:55:12.956Z,43.97
2018-05-31T23:57:41.577Z,39.60
